sensor_id;sensor_type;location;lat;lon;timestamp;P1;durP1;ratioP1;P2;durP2;ratioP2
54193;SDS011;40102;50.906;6.972;2022-10-24T00:01:33;8.25;;;2.70;;
54193;SDS011;40102;50.906;6.972;2022-10-24T00:03:58;8.23;;;2.97;;
54193;SDS011;40102;50.906;6.972;2022-10-24T00:06:24;8.70;;;3.28;;
54193;SDS011;40102;50.906;6.972;2022-10-24T00:08:50;8.95;;;2.85;;
54193;SDS011;40102;50.906;6.972;2022-10-24T00:11:19;11.98;;;2.88;;
54193;SDS011;40102;50.906;6.972;2022-10-24T00:13:46;11.57;;;3.40;;
54193;SDS011;40102;50.906;6.972;2022-10-24T00:16:12;8.52;;;2.50;;
54193;SDS011;40102;50.906;6.972;2022-10-24T00:18:38;9.20;;;2.60;;
54193;SDS011;40102;50.906;6.972;2022-10-24T00:21:03;7.68;;;2.40;;
54193;SDS011;40102;50.906;6.972;2022-10-24T00:23:30;4.80;;;2.20;;
54193;SDS011;40102;50.906;6.972;2022-10-24T00:25:55;8.20;;;2.55;;
54193;SDS011;40102;50.906;6.972;2022-10-24T00:28:25;10.40;;;2.78;;
54193;SDS011;40102;50.906;6.972;2022-10-24T00:30:51;9.52;;;2.42;;
54193;SDS011;40102;50.906;6.972;2022-10-24T00:33:17;12.13;;;2.75;;
54193;SDS011;40102;50.906;6.972;2022-10-24T00:35:43;14.27;;;2.40;;
54193;SDS011;40102;50.906;6.972;2022-10-24T00:38:08;6.35;;;2.42;;
54193;SDS011;40102;50.906;6.972;2022-10-24T00:40:33;13.70;;;2.55;;
54193;SDS011;40102;50.906;6.972;2022-10-24T00:42:59;7.95;;;1.95;;
54193;SDS011;40102;50.906;6.972;2022-10-24T00:48:19;9.40;;;2.22;;
54193;SDS011;40102;50.906;6.972;2022-10-24T00:50:46;10.65;;;2.50;;
54193;SDS011;40102;50.906;6.972;2022-10-24T00:53:16;9.52;;;2.30;;
54193;SDS011;40102;50.906;6.972;2022-10-24T00:55:44;8.15;;;2.00;;
54193;SDS011;40102;50.906;6.972;2022-10-24T00:58:11;9.88;;;2.20;;
54193;SDS011;40102;50.906;6.972;2022-10-24T01:00:38;8.32;;;2.60;;
54193;SDS011;40102;50.906;6.972;2022-10-24T01:03:03;11.05;;;2.35;;
54193;SDS011;40102;50.906;6.972;2022-10-24T01:05:54;6.95;;;1.80;;
54193;SDS011;40102;50.906;6.972;2022-10-24T01:15:50;7.40;;;2.47;;
54193;SDS011;40102;50.906;6.972;2022-10-24T01:21:27;7.80;;;2.22;;
54193;SDS011;40102;50.906;6.972;2022-10-24T01:24:03;9.57;;;2.47;;
54193;SDS011;40102;50.906;6.972;2022-10-24T01:34:32;7.35;;;2.20;;
54193;SDS011;40102;50.906;6.972;2022-10-24T01:37:17;12.50;;;2.70;;
54193;SDS011;40102;50.906;6.972;2022-10-24T01:39:49;9.50;;;2.20;;
54193;SDS011;40102;50.906;6.972;2022-10-24T01:42:18;11.70;;;2.88;;
54193;SDS011;40102;50.906;6.972;2022-10-24T01:44:47;12.43;;;2.63;;
54193;SDS011;40102;50.906;6.972;2022-10-24T01:47:20;5.28;;;1.88;;
54193;SDS011;40102;50.906;6.972;2022-10-24T01:49:52;7.80;;;2.50;;
54193;SDS011;40102;50.906;6.972;2022-10-24T01:52:24;6.38;;;2.53;;
54193;SDS011;40102;50.906;6.972;2022-10-24T01:54:54;8.75;;;2.60;;
54193;SDS011;40102;50.906;6.972;2022-10-24T01:57:25;15.48;;;2.30;;
54193;SDS011;40102;50.906;6.972;2022-10-24T01:59:53;7.50;;;2.70;;
54193;SDS011;40102;50.906;6.972;2022-10-24T02:02:24;11.02;;;2.60;;
54193;SDS011;40102;50.906;6.972;2022-10-24T02:07:31;10.57;;;2.53;;
54193;SDS011;40102;50.906;6.972;2022-10-24T02:10:11;12.45;;;2.83;;
54193;SDS011;40102;50.906;6.972;2022-10-24T02:12:45;9.18;;;2.80;;
54193;SDS011;40102;50.906;6.972;2022-10-24T02:15:18;7.47;;;2.38;;
54193;SDS011;40102;50.906;6.972;2022-10-24T02:17:48;9.15;;;2.50;;
54193;SDS011;40102;50.906;6.972;2022-10-24T02:20:13;11.93;;;2.55;;
54193;SDS011;40102;50.906;6.972;2022-10-24T02:25:17;10.93;;;2.58;;
54193;SDS011;40102;50.906;6.972;2022-10-24T02:27:54;12.85;;;2.70;;
54193;SDS011;40102;50.906;6.972;2022-10-24T02:30:27;7.13;;;2.50;;
54193;SDS011;40102;50.906;6.972;2022-10-24T02:32:55;9.10;;;2.38;;
54193;SDS011;40102;50.906;6.972;2022-10-24T02:35:26;11.80;;;2.40;;
54193;SDS011;40102;50.906;6.972;2022-10-24T02:37:59;6.45;;;2.05;;
54193;SDS011;40102;50.906;6.972;2022-10-24T02:40:33;12.35;;;3.15;;
54193;SDS011;40102;50.906;6.972;2022-10-24T02:43:00;5.28;;;2.25;;
54193;SDS011;40102;50.906;6.972;2022-10-24T02:45:28;8.15;;;2.92;;
54193;SDS011;40102;50.906;6.972;2022-10-24T02:47:55;6.85;;;2.20;;
54193;SDS011;40102;50.906;6.972;2022-10-24T02:50:24;13.75;;;2.45;;
54193;SDS011;40102;50.906;6.972;2022-10-24T02:52:51;9.65;;;2.90;;
54193;SDS011;40102;50.906;6.972;2022-10-24T02:55:16;9.30;;;2.33;;
54193;SDS011;40102;50.906;6.972;2022-10-24T02:57:41;7.90;;;2.22;;
54193;SDS011;40102;50.906;6.972;2022-10-24T03:00:07;7.75;;;2.42;;
54193;SDS011;40102;50.906;6.972;2022-10-24T03:02:33;13.00;;;2.40;;
54193;SDS011;40102;50.906;6.972;2022-10-24T03:04:58;10.05;;;2.22;;
54193;SDS011;40102;50.906;6.972;2022-10-24T03:07:24;8.02;;;2.55;;
54193;SDS011;40102;50.906;6.972;2022-10-24T03:09:49;5.88;;;2.25;;
54193;SDS011;40102;50.906;6.972;2022-10-24T03:12:18;6.53;;;1.95;;
54193;SDS011;40102;50.906;6.972;2022-10-24T03:14:43;6.63;;;2.20;;
54193;SDS011;40102;50.906;6.972;2022-10-24T03:17:09;6.65;;;2.22;;
54193;SDS011;40102;50.906;6.972;2022-10-24T03:19:35;12.35;;;2.45;;
54193;SDS011;40102;50.906;6.972;2022-10-24T03:22:02;8.88;;;2.28;;
54193;SDS011;40102;50.906;6.972;2022-10-24T03:24:28;15.57;;;3.33;;
54193;SDS011;40102;50.906;6.972;2022-10-24T03:26:53;11.60;;;2.20;;
54193;SDS011;40102;50.906;6.972;2022-10-24T03:29:18;36.05;;;4.57;;
54193;SDS011;40102;50.906;6.972;2022-10-24T03:31:44;3.95;;;1.92;;
54193;SDS011;40102;50.906;6.972;2022-10-24T03:34:10;7.60;;;2.08;;
54193;SDS011;40102;50.906;6.972;2022-10-24T03:36:35;6.85;;;2.00;;
54193;SDS011;40102;50.906;6.972;2022-10-24T03:39:00;8.82;;;1.77;;
54193;SDS011;40102;50.906;6.972;2022-10-24T03:41:26;7.85;;;1.98;;
54193;SDS011;40102;50.906;6.972;2022-10-24T03:43:51;6.53;;;2.03;;
54193;SDS011;40102;50.906;6.972;2022-10-24T03:46:17;7.03;;;2.03;;
54193;SDS011;40102;50.906;6.972;2022-10-24T03:48:42;13.65;;;2.35;;
54193;SDS011;40102;50.906;6.972;2022-10-24T03:51:07;10.10;;;1.88;;
54193;SDS011;40102;50.906;6.972;2022-10-24T03:53:33;5.80;;;1.95;;
54193;SDS011;40102;50.906;6.972;2022-10-24T03:55:58;13.70;;;2.33;;
54193;SDS011;40102;50.906;6.972;2022-10-24T03:58:24;8.80;;;2.25;;
54193;SDS011;40102;50.906;6.972;2022-10-24T04:00:50;8.75;;;2.55;;
54193;SDS011;40102;50.906;6.972;2022-10-24T04:03:16;6.43;;;1.65;;
54193;SDS011;40102;50.906;6.972;2022-10-24T04:05:41;4.07;;;1.85;;
54193;SDS011;40102;50.906;6.972;2022-10-24T04:08:07;7.32;;;1.92;;
54193;SDS011;40102;50.906;6.972;2022-10-24T04:10:32;6.82;;;2.10;;
54193;SDS011;40102;50.906;6.972;2022-10-24T04:12:58;5.13;;;1.80;;
54193;SDS011;40102;50.906;6.972;2022-10-24T04:15:23;7.18;;;1.90;;
54193;SDS011;40102;50.906;6.972;2022-10-24T04:17:48;7.30;;;2.40;;
54193;SDS011;40102;50.906;6.972;2022-10-24T04:20:14;7.60;;;2.40;;
54193;SDS011;40102;50.906;6.972;2022-10-24T04:22:43;5.13;;;2.00;;
54193;SDS011;40102;50.906;6.972;2022-10-24T04:25:09;10.27;;;2.70;;
54193;SDS011;40102;50.906;6.972;2022-10-24T04:27:34;6.63;;;1.95;;
54193;SDS011;40102;50.906;6.972;2022-10-24T04:30:04;6.20;;;1.80;;
54193;SDS011;40102;50.906;6.972;2022-10-24T04:32:33;9.43;;;2.08;;
54193;SDS011;40102;50.906;6.972;2022-10-24T04:34:59;6.15;;;1.95;;
54193;SDS011;40102;50.906;6.972;2022-10-24T04:37:25;9.13;;;1.98;;
54193;SDS011;40102;50.906;6.972;2022-10-24T04:39:51;7.70;;;1.70;;
54193;SDS011;40102;50.906;6.972;2022-10-24T04:42:18;18.75;;;3.10;;
54193;SDS011;40102;50.906;6.972;2022-10-24T04:44:44;8.10;;;2.03;;
54193;SDS011;40102;50.906;6.972;2022-10-24T04:47:09;5.80;;;1.75;;
54193;SDS011;40102;50.906;6.972;2022-10-24T04:49:35;7.10;;;1.77;;
54193;SDS011;40102;50.906;6.972;2022-10-24T04:52:00;4.25;;;1.77;;
54193;SDS011;40102;50.906;6.972;2022-10-24T04:54:26;8.55;;;1.77;;
54193;SDS011;40102;50.906;6.972;2022-10-24T04:56:51;5.32;;;1.50;;
54193;SDS011;40102;50.906;6.972;2022-10-24T04:59:16;8.20;;;1.80;;
54193;SDS011;40102;50.906;6.972;2022-10-24T05:01:42;7.00;;;1.85;;
54193;SDS011;40102;50.906;6.972;2022-10-24T05:04:07;9.27;;;2.47;;
54193;SDS011;40102;50.906;6.972;2022-10-24T05:06:33;7.32;;;1.58;;
54193;SDS011;40102;50.906;6.972;2022-10-24T05:08:58;11.93;;;2.00;;
54193;SDS011;40102;50.906;6.972;2022-10-24T05:11:24;8.48;;;1.83;;
54193;SDS011;40102;50.906;6.972;2022-10-24T05:13:49;5.30;;;1.92;;
54193;SDS011;40102;50.906;6.972;2022-10-24T05:16:14;5.35;;;1.42;;
54193;SDS011;40102;50.906;6.972;2022-10-24T05:18:40;5.63;;;1.80;;
54193;SDS011;40102;50.906;6.972;2022-10-24T05:21:05;4.93;;;1.75;;
54193;SDS011;40102;50.906;6.972;2022-10-24T05:23:30;6.93;;;1.65;;
54193;SDS011;40102;50.906;6.972;2022-10-24T05:25:56;4.53;;;2.45;;
54193;SDS011;40102;50.906;6.972;2022-10-24T05:28:21;4.47;;;1.50;;
54193;SDS011;40102;50.906;6.972;2022-10-24T05:30:47;4.82;;;1.40;;
54193;SDS011;40102;50.906;6.972;2022-10-24T05:33:12;6.03;;;1.50;;
54193;SDS011;40102;50.906;6.972;2022-10-24T05:35:38;10.02;;;2.03;;
54193;SDS011;40102;50.906;6.972;2022-10-24T05:38:03;3.72;;;1.25;;
54193;SDS011;40102;50.906;6.972;2022-10-24T05:40:29;6.70;;;1.38;;
54193;SDS011;40102;50.906;6.972;2022-10-24T05:42:54;4.07;;;1.23;;
54193;SDS011;40102;50.906;6.972;2022-10-24T05:45:20;3.72;;;1.27;;
54193;SDS011;40102;50.906;6.972;2022-10-24T05:47:45;3.97;;;1.42;;
54193;SDS011;40102;50.906;6.972;2022-10-24T05:50:14;8.98;;;1.38;;
54193;SDS011;40102;50.906;6.972;2022-10-24T05:52:40;5.40;;;1.52;;
54193;SDS011;40102;50.906;6.972;2022-10-24T05:55:07;6.57;;;1.23;;
54193;SDS011;40102;50.906;6.972;2022-10-24T05:57:34;5.07;;;1.40;;
54193;SDS011;40102;50.906;6.972;2022-10-24T06:00:00;8.50;;;1.48;;
54193;SDS011;40102;50.906;6.972;2022-10-24T06:02:26;3.20;;;1.15;;
54193;SDS011;40102;50.906;6.972;2022-10-24T06:04:51;4.13;;;1.05;;
54193;SDS011;40102;50.906;6.972;2022-10-24T06:07:19;5.50;;;1.23;;
54193;SDS011;40102;50.906;6.972;2022-10-24T06:09:44;9.73;;;2.00;;
54193;SDS011;40102;50.906;6.972;2022-10-24T06:12:10;4.63;;;1.20;;
54193;SDS011;40102;50.906;6.972;2022-10-24T06:14:37;7.72;;;1.20;;
54193;SDS011;40102;50.906;6.972;2022-10-24T06:17:03;3.65;;;1.25;;
54193;SDS011;40102;50.906;6.972;2022-10-24T06:19:34;4.55;;;1.20;;
54193;SDS011;40102;50.906;6.972;2022-10-24T06:22:00;3.20;;;1.40;;
54193;SDS011;40102;50.906;6.972;2022-10-24T06:24:27;4.55;;;1.75;;
54193;SDS011;40102;50.906;6.972;2022-10-24T06:26:52;2.72;;;1.15;;
54193;SDS011;40102;50.906;6.972;2022-10-24T06:29:18;3.90;;;1.20;;
54193;SDS011;40102;50.906;6.972;2022-10-24T06:31:46;5.22;;;1.13;;
54193;SDS011;40102;50.906;6.972;2022-10-24T06:34:11;5.55;;;1.00;;
54193;SDS011;40102;50.906;6.972;2022-10-24T06:36:37;7.85;;;1.30;;
54193;SDS011;40102;50.906;6.972;2022-10-24T06:39:02;7.38;;;1.13;;
54193;SDS011;40102;50.906;6.972;2022-10-24T06:41:28;5.20;;;1.30;;
54193;SDS011;40102;50.906;6.972;2022-10-24T06:43:53;5.18;;;1.10;;
54193;SDS011;40102;50.906;6.972;2022-10-24T06:46:20;4.45;;;1.10;;
54193;SDS011;40102;50.906;6.972;2022-10-24T06:48:47;4.30;;;1.00;;
54193;SDS011;40102;50.906;6.972;2022-10-24T06:51:17;3.85;;;1.23;;
54193;SDS011;40102;50.906;6.972;2022-10-24T06:53:42;6.45;;;1.80;;
54193;SDS011;40102;50.906;6.972;2022-10-24T06:56:08;3.80;;;1.17;;
54193;SDS011;40102;50.906;6.972;2022-10-24T06:58:34;6.38;;;1.25;;
54193;SDS011;40102;50.906;6.972;2022-10-24T07:01:11;9.20;;;2.15;;
54193;SDS011;40102;50.906;6.972;2022-10-24T07:03:38;5.50;;;1.20;;
54193;SDS011;40102;50.906;6.972;2022-10-24T07:06:08;4.80;;;1.38;;
54193;SDS011;40102;50.906;6.972;2022-10-24T07:08:39;3.28;;;1.00;;
54193;SDS011;40102;50.906;6.972;2022-10-24T07:11:04;6.53;;;1.50;;
54193;SDS011;40102;50.906;6.972;2022-10-24T07:13:30;5.15;;;1.15;;
54193;SDS011;40102;50.906;6.972;2022-10-24T07:15:58;4.70;;;1.15;;
54193;SDS011;40102;50.906;6.972;2022-10-24T07:18:23;4.20;;;1.35;;
54193;SDS011;40102;50.906;6.972;2022-10-24T07:20:49;2.72;;;1.08;;
54193;SDS011;40102;50.906;6.972;2022-10-24T07:23:15;10.45;;;3.05;;
54193;SDS011;40102;50.906;6.972;2022-10-24T07:25:40;3.80;;;1.60;;
54193;SDS011;40102;50.906;6.972;2022-10-24T07:28:06;5.32;;;1.30;;
54193;SDS011;40102;50.906;6.972;2022-10-24T07:30:35;3.28;;;1.02;;
54193;SDS011;40102;50.906;6.972;2022-10-24T07:33:00;4.20;;;0.80;;
54193;SDS011;40102;50.906;6.972;2022-10-24T07:35:26;4.72;;;0.88;;
54193;SDS011;40102;50.906;6.972;2022-10-24T07:37:51;3.65;;;0.90;;
54193;SDS011;40102;50.906;6.972;2022-10-24T07:40:17;3.55;;;1.00;;
54193;SDS011;40102;50.906;6.972;2022-10-24T07:42:43;5.07;;;0.90;;
54193;SDS011;40102;50.906;6.972;2022-10-24T07:45:08;4.10;;;0.95;;
54193;SDS011;40102;50.906;6.972;2022-10-24T07:47:36;4.20;;;0.80;;
54193;SDS011;40102;50.906;6.972;2022-10-24T07:50:03;4.55;;;1.33;;
54193;SDS011;40102;50.906;6.972;2022-10-24T07:52:32;4.38;;;1.20;;
54193;SDS011;40102;50.906;6.972;2022-10-24T07:55:26;4.07;;;0.85;;
54193;SDS011;40102;50.906;6.972;2022-10-24T07:57:51;4.80;;;1.08;;
54193;SDS011;40102;50.906;6.972;2022-10-24T08:00:17;4.20;;;1.75;;
54193;SDS011;40102;50.906;6.972;2022-10-24T08:02:48;5.40;;;1.00;;
54193;SDS011;40102;50.906;6.972;2022-10-24T08:05:14;5.50;;;0.98;;
54193;SDS011;40102;50.906;6.972;2022-10-24T08:07:43;4.85;;;0.95;;
54193;SDS011;40102;50.906;6.972;2022-10-24T08:10:12;2.92;;;0.88;;
54193;SDS011;40102;50.906;6.972;2022-10-24T08:12:38;6.95;;;0.90;;
54193;SDS011;40102;50.906;6.972;2022-10-24T08:15:12;12.38;;;1.90;;
54193;SDS011;40102;50.906;6.972;2022-10-24T08:17:41;6.55;;;1.00;;
54193;SDS011;40102;50.906;6.972;2022-10-24T08:20:07;4.45;;;1.00;;
54193;SDS011;40102;50.906;6.972;2022-10-24T08:22:54;4.03;;;1.10;;
54193;SDS011;40102;50.906;6.972;2022-10-24T08:25:23;4.07;;;1.25;;
54193;SDS011;40102;50.906;6.972;2022-10-24T08:27:48;3.75;;;1.30;;
54193;SDS011;40102;50.906;6.972;2022-10-24T08:30:17;3.22;;;1.10;;
54193;SDS011;40102;50.906;6.972;2022-10-24T08:32:44;6.10;;;1.50;;
54193;SDS011;40102;50.906;6.972;2022-10-24T08:35:11;5.15;;;0.95;;
54193;SDS011;40102;50.906;6.972;2022-10-24T08:37:44;2.90;;;1.25;;
54193;SDS011;40102;50.906;6.972;2022-10-24T08:40:11;2.65;;;1.20;;
54193;SDS011;40102;50.906;6.972;2022-10-24T08:42:40;7.82;;;2.30;;
54193;SDS011;40102;50.906;6.972;2022-10-24T08:45:14;2.97;;;1.10;;
54193;SDS011;40102;50.906;6.972;2022-10-24T08:47:48;3.17;;;1.00;;
54193;SDS011;40102;50.906;6.972;2022-10-24T08:50:24;5.57;;;1.10;;
54193;SDS011;40102;50.906;6.972;2022-10-24T08:53:00;4.97;;;1.38;;
54193;SDS011;40102;50.906;6.972;2022-10-24T08:58:35;4.00;;;1.17;;
54193;SDS011;40102;50.906;6.972;2022-10-24T09:01:12;6.03;;;1.55;;
54193;SDS011;40102;50.906;6.972;2022-10-24T09:03:45;5.05;;;1.00;;
54193;SDS011;40102;50.906;6.972;2022-10-24T09:06:16;6.70;;;1.75;;
54193;SDS011;40102;50.906;6.972;2022-10-24T09:08:43;3.67;;;1.15;;
54193;SDS011;40102;50.906;6.972;2022-10-24T09:11:36;4.82;;;1.20;;
54193;SDS011;40102;50.906;6.972;2022-10-24T09:14:06;3.60;;;1.00;;
54193;SDS011;40102;50.906;6.972;2022-10-24T09:16:42;7.13;;;1.58;;
54193;SDS011;40102;50.906;6.972;2022-10-24T09:21:38;3.50;;;1.23;;
54193;SDS011;40102;50.906;6.972;2022-10-24T09:24:05;3.70;;;1.67;;
54193;SDS011;40102;50.906;6.972;2022-10-24T09:26:31;5.28;;;1.73;;
54193;SDS011;40102;50.906;6.972;2022-10-24T09:28:57;9.32;;;1.50;;
54193;SDS011;40102;50.906;6.972;2022-10-24T09:31:23;4.20;;;0.63;;
54193;SDS011;40102;50.906;6.972;2022-10-24T09:33:51;4.45;;;0.70;;
54193;SDS011;40102;50.906;6.972;2022-10-24T09:36:20;11.15;;;1.73;;
54193;SDS011;40102;50.906;6.972;2022-10-24T09:38:49;5.57;;;1.27;;
54193;SDS011;40102;50.906;6.972;2022-10-24T09:43:58;4.28;;;0.90;;
54193;SDS011;40102;50.906;6.972;2022-10-24T09:46:28;5.55;;;1.30;;
54193;SDS011;40102;50.906;6.972;2022-10-24T09:49:15;3.13;;;0.95;;
54193;SDS011;40102;50.906;6.972;2022-10-24T09:51:50;4.95;;;0.95;;
54193;SDS011;40102;50.906;6.972;2022-10-24T09:54:27;5.30;;;0.80;;
54193;SDS011;40102;50.906;6.972;2022-10-24T09:57:01;7.10;;;0.90;;
54193;SDS011;40102;50.906;6.972;2022-10-24T09:59:37;6.40;;;1.13;;
54193;SDS011;40102;50.906;6.972;2022-10-24T10:07:49;4.93;;;1.15;;
54193;SDS011;40102;50.906;6.972;2022-10-24T10:13:02;7.03;;;0.90;;
54193;SDS011;40102;50.906;6.972;2022-10-24T10:15:33;3.22;;;0.93;;
54193;SDS011;40102;50.906;6.972;2022-10-24T10:23:34;2.85;;;0.57;;
54193;SDS011;40102;50.906;6.972;2022-10-24T10:31:22;4.20;;;0.98;;
54193;SDS011;40102;50.906;6.972;2022-10-24T10:36:38;3.75;;;1.30;;
54193;SDS011;40102;50.906;6.972;2022-10-24T10:44:58;4.07;;;0.70;;
54193;SDS011;40102;50.906;6.972;2022-10-24T10:47:35;6.00;;;0.85;;
54193;SDS011;40102;50.906;6.972;2022-10-24T10:50:25;5.10;;;0.95;;
54193;SDS011;40102;50.906;6.972;2022-10-24T11:01:42;2.83;;;0.57;;
54193;SDS011;40102;50.906;6.972;2022-10-24T11:06:41;6.75;;;1.08;;
54193;SDS011;40102;50.906;6.972;2022-10-24T11:09:32;6.88;;;1.20;;
54193;SDS011;40102;50.906;6.972;2022-10-24T11:14:49;3.92;;;0.90;;
54193;SDS011;40102;50.906;6.972;2022-10-24T11:17:21;5.40;;;1.00;;
54193;SDS011;40102;50.906;6.972;2022-10-24T11:20:02;3.97;;;0.80;;
54193;SDS011;40102;50.906;6.972;2022-10-24T11:22:44;3.53;;;0.85;;
54193;SDS011;40102;50.906;6.972;2022-10-24T11:28:39;3.10;;;1.00;;
54193;SDS011;40102;50.906;6.972;2022-10-24T11:30:46;3.83;;;0.65;;
54193;SDS011;40102;50.906;6.972;2022-10-24T11:33:19;3.17;;;0.95;;
54193;SDS011;40102;50.906;6.972;2022-10-24T11:36:08;4.10;;;0.93;;
54193;SDS011;40102;50.906;6.972;2022-10-24T11:38:47;6.07;;;1.05;;
54193;SDS011;40102;50.906;6.972;2022-10-24T11:44:09;4.40;;;0.75;;
54193;SDS011;40102;50.906;6.972;2022-10-24T11:46:43;5.53;;;0.80;;
54193;SDS011;40102;50.906;6.972;2022-10-24T11:49:24;4.68;;;0.73;;
54193;SDS011;40102;50.906;6.972;2022-10-24T11:51:56;3.65;;;0.60;;
54193;SDS011;40102;50.906;6.972;2022-10-24T11:54:30;2.90;;;0.90;;
54193;SDS011;40102;50.906;6.972;2022-10-24T11:57:03;5.20;;;1.13;;
54193;SDS011;40102;50.906;6.972;2022-10-24T11:59:35;4.63;;;0.80;;
54193;SDS011;40102;50.906;6.972;2022-10-24T12:02:49;4.97;;;1.08;;
54193;SDS011;40102;50.906;6.972;2022-10-24T12:13:09;6.25;;;0.90;;
54193;SDS011;40102;50.906;6.972;2022-10-24T12:15:41;3.75;;;0.75;;
54193;SDS011;40102;50.906;6.972;2022-10-24T12:21:02;2.13;;;0.63;;
54193;SDS011;40102;50.906;6.972;2022-10-24T12:23:30;4.45;;;0.80;;
54193;SDS011;40102;50.906;6.972;2022-10-24T12:26:04;4.03;;;0.90;;
54193;SDS011;40102;50.906;6.972;2022-10-24T12:28:42;3.40;;;0.60;;
54193;SDS011;40102;50.906;6.972;2022-10-24T12:31:27;4.70;;;0.90;;
54193;SDS011;40102;50.906;6.972;2022-10-24T12:39:43;3.78;;;0.70;;
54193;SDS011;40102;50.906;6.972;2022-10-24T12:42:12;4.63;;;0.77;;
54193;SDS011;40102;50.906;6.972;2022-10-24T12:53:15;4.43;;;0.80;;
54193;SDS011;40102;50.906;6.972;2022-10-24T12:58:28;4.40;;;1.00;;
54193;SDS011;40102;50.906;6.972;2022-10-24T13:01:05;6.97;;;1.00;;
54193;SDS011;40102;50.906;6.972;2022-10-24T13:17:36;7.80;;;1.08;;
54193;SDS011;40102;50.906;6.972;2022-10-24T13:20:16;4.53;;;1.13;;
54193;SDS011;40102;50.906;6.972;2022-10-24T13:22:50;3.20;;;0.80;;
54193;SDS011;40102;50.906;6.972;2022-10-24T13:25:26;4.32;;;0.93;;
54193;SDS011;40102;50.906;6.972;2022-10-24T13:30:43;5.25;;;0.90;;
54193;SDS011;40102;50.906;6.972;2022-10-24T13:35:56;3.10;;;0.70;;
54193;SDS011;40102;50.906;6.972;2022-10-24T13:38:30;2.22;;;0.70;;
54193;SDS011;40102;50.906;6.972;2022-10-24T13:40:57;6.13;;;1.05;;
54193;SDS011;40102;50.906;6.972;2022-10-24T13:43:23;6.28;;;1.20;;
54193;SDS011;40102;50.906;6.972;2022-10-24T13:45:54;4.28;;;1.08;;
54193;SDS011;40102;50.906;6.972;2022-10-24T13:48:27;9.23;;;1.85;;
54193;SDS011;40102;50.906;6.972;2022-10-24T13:51:01;3.10;;;0.68;;
54193;SDS011;40102;50.906;6.972;2022-10-24T13:53:28;2.85;;;0.75;;
54193;SDS011;40102;50.906;6.972;2022-10-24T13:55:59;4.25;;;0.90;;
54193;SDS011;40102;50.906;6.972;2022-10-24T13:58:35;2.20;;;0.63;;
54193;SDS011;40102;50.906;6.972;2022-10-24T14:01:03;4.03;;;0.80;;
54193;SDS011;40102;50.906;6.972;2022-10-24T14:03:32;1.42;;;0.50;;
54193;SDS011;40102;50.906;6.972;2022-10-24T14:05:59;2.45;;;0.90;;
54193;SDS011;40102;50.906;6.972;2022-10-24T14:08:31;5.20;;;0.90;;
54193;SDS011;40102;50.906;6.972;2022-10-24T14:11:00;5.20;;;0.93;;
54193;SDS011;40102;50.906;6.972;2022-10-24T14:13:30;2.92;;;0.77;;
54193;SDS011;40102;50.906;6.972;2022-10-24T14:16:00;2.83;;;0.70;;
54193;SDS011;40102;50.906;6.972;2022-10-24T14:18:28;4.50;;;0.88;;
54193;SDS011;40102;50.906;6.972;2022-10-24T14:20:56;4.65;;;0.70;;
54193;SDS011;40102;50.906;6.972;2022-10-24T14:23:36;3.78;;;0.90;;
54193;SDS011;40102;50.906;6.972;2022-10-24T14:26:17;4.43;;;1.10;;
54193;SDS011;40102;50.906;6.972;2022-10-24T14:28:46;3.65;;;0.82;;
54193;SDS011;40102;50.906;6.972;2022-10-24T14:31:23;3.17;;;1.13;;
54193;SDS011;40102;50.906;6.972;2022-10-24T14:33:52;4.38;;;0.70;;
54193;SDS011;40102;50.906;6.972;2022-10-24T14:36:21;2.72;;;0.90;;
54193;SDS011;40102;50.906;6.972;2022-10-24T14:38:55;3.95;;;0.85;;
54193;SDS011;40102;50.906;6.972;2022-10-24T14:41:25;1.98;;;0.77;;
54193;SDS011;40102;50.906;6.972;2022-10-24T14:46:23;3.60;;;0.80;;
54193;SDS011;40102;50.906;6.972;2022-10-24T14:48:53;5.13;;;0.82;;
54193;SDS011;40102;50.906;6.972;2022-10-24T14:51:30;3.67;;;0.70;;
54193;SDS011;40102;50.906;6.972;2022-10-24T14:54:04;3.75;;;1.02;;
54193;SDS011;40102;50.906;6.972;2022-10-24T14:56:41;3.90;;;0.77;;
54193;SDS011;40102;50.906;6.972;2022-10-24T14:59:13;2.92;;;0.70;;
54193;SDS011;40102;50.906;6.972;2022-10-24T15:01:55;5.65;;;0.90;;
54193;SDS011;40102;50.906;6.972;2022-10-24T15:04:42;3.50;;;0.68;;
54193;SDS011;40102;50.906;6.972;2022-10-24T15:07:35;2.92;;;0.75;;
54193;SDS011;40102;50.906;6.972;2022-10-24T15:10:18;4.32;;;0.82;;
54193;SDS011;40102;50.906;6.972;2022-10-24T15:13:02;2.85;;;0.90;;
54193;SDS011;40102;50.906;6.972;2022-10-24T15:20:46;5.22;;;0.80;;
54193;SDS011;40102;50.906;6.972;2022-10-24T15:23:35;3.30;;;0.57;;
54193;SDS011;40102;50.906;6.972;2022-10-24T15:26:02;2.92;;;0.85;;
54193;SDS011;40102;50.906;6.972;2022-10-24T15:28:52;2.35;;;1.05;;
54193;SDS011;40102;50.906;6.972;2022-10-24T15:31:18;5.35;;;1.23;;
54193;SDS011;40102;50.906;6.972;2022-10-24T15:33:45;5.35;;;1.20;;
54193;SDS011;40102;50.906;6.972;2022-10-24T15:38:54;5.38;;;1.00;;
54193;SDS011;40102;50.906;6.972;2022-10-24T15:43:46;7.55;;;1.65;;
54193;SDS011;40102;50.906;6.972;2022-10-24T15:46:11;6.70;;;1.60;;
54193;SDS011;40102;50.906;6.972;2022-10-24T15:48:37;3.95;;;1.10;;
54193;SDS011;40102;50.906;6.972;2022-10-24T15:51:03;6.22;;;1.13;;
54193;SDS011;40102;50.906;6.972;2022-10-24T15:53:29;6.22;;;0.90;;
54193;SDS011;40102;50.906;6.972;2022-10-24T15:55:55;5.28;;;1.48;;
54193;SDS011;40102;50.906;6.972;2022-10-24T15:58:20;6.30;;;1.20;;
54193;SDS011;40102;50.906;6.972;2022-10-24T16:00:46;3.72;;;1.10;;
54193;SDS011;40102;50.906;6.972;2022-10-24T16:03:12;8.38;;;1.13;;
54193;SDS011;40102;50.906;6.972;2022-10-24T16:05:46;6.50;;;1.52;;
54193;SDS011;40102;50.906;6.972;2022-10-24T16:08:16;5.65;;;1.02;;
54193;SDS011;40102;50.906;6.972;2022-10-24T16:10:44;5.78;;;1.95;;
54193;SDS011;40102;50.906;6.972;2022-10-24T16:13:13;5.10;;;1.30;;
54193;SDS011;40102;50.906;6.972;2022-10-24T16:15:39;6.68;;;1.58;;
54193;SDS011;40102;50.906;6.972;2022-10-24T16:18:05;4.57;;;1.02;;
54193;SDS011;40102;50.906;6.972;2022-10-24T16:20:32;6.63;;;1.17;;
54193;SDS011;40102;50.906;6.972;2022-10-24T16:22:58;6.35;;;1.10;;
54193;SDS011;40102;50.906;6.972;2022-10-24T16:25:25;5.38;;;1.25;;
54193;SDS011;40102;50.906;6.972;2022-10-24T16:27:55;5.80;;;2.53;;
54193;SDS011;40102;50.906;6.972;2022-10-24T16:30:22;11.77;;;3.95;;
54193;SDS011;40102;50.906;6.972;2022-10-24T16:32:50;6.13;;;2.17;;
54193;SDS011;40102;50.906;6.972;2022-10-24T16:35:17;7.28;;;2.40;;
54193;SDS011;40102;50.906;6.972;2022-10-24T16:37:44;7.47;;;2.22;;
54193;SDS011;40102;50.906;6.972;2022-10-24T16:40:10;9.98;;;2.38;;
54193;SDS011;40102;50.906;6.972;2022-10-24T16:42:36;10.45;;;3.65;;
54193;SDS011;40102;50.906;6.972;2022-10-24T16:45:02;8.10;;;3.40;;
54193;SDS011;40102;50.906;6.972;2022-10-24T16:47:28;9.10;;;4.60;;
54193;SDS011;40102;50.906;6.972;2022-10-24T16:49:56;10.90;;;4.10;;
54193;SDS011;40102;50.906;6.972;2022-10-24T16:52:22;5.88;;;2.75;;
54193;SDS011;40102;50.906;6.972;2022-10-24T16:54:48;7.90;;;2.33;;
54193;SDS011;40102;50.906;6.972;2022-10-24T16:57:13;5.55;;;1.45;;
54193;SDS011;40102;50.906;6.972;2022-10-24T16:59:39;6.30;;;1.33;;
54193;SDS011;40102;50.906;6.972;2022-10-24T17:02:04;5.60;;;1.60;;
54193;SDS011;40102;50.906;6.972;2022-10-24T17:04:29;8.63;;;1.63;;
54193;SDS011;40102;50.906;6.972;2022-10-24T17:06:55;5.40;;;1.10;;
54193;SDS011;40102;50.906;6.972;2022-10-24T17:09:20;10.75;;;1.92;;
54193;SDS011;40102;50.906;6.972;2022-10-24T17:11:45;5.22;;;1.30;;
54193;SDS011;40102;50.906;6.972;2022-10-24T17:14:11;5.78;;;1.08;;
54193;SDS011;40102;50.906;6.972;2022-10-24T17:16:38;6.28;;;1.70;;
54193;SDS011;40102;50.906;6.972;2022-10-24T17:19:04;6.10;;;1.33;;
54193;SDS011;40102;50.906;6.972;2022-10-24T17:21:29;6.30;;;1.30;;